createdAt,value
2023-03-30T00:02:23.030Z,4.45
2023-03-30T00:06:24.675Z,3.97
2023-03-30T00:10:27.159Z,4.82
2023-03-30T00:14:29.642Z,3.72
2023-03-30T00:18:31.096Z,4.45
2023-03-30T00:22:32.664Z,4.30
2023-03-30T00:26:34.093Z,4.85
2023-03-30T00:30:37.033Z,3.80
2023-03-30T00:34:38.494Z,4.10
2023-03-30T00:38:40.511Z,4.80
2023-03-30T00:42:42.060Z,4.80
2023-03-30T00:46:43.495Z,3.92
2023-03-30T00:50:49.710Z,4.35
2023-03-30T00:54:54.059Z,4.32
2023-03-30T00:58:55.744Z,4.22
2023-03-30T01:03:01.509Z,4.78
2023-03-30T01:07:04.876Z,4.25
2023-03-30T01:11:07.570Z,4.55
2023-03-30T01:15:10.318Z,4.25
2023-03-30T01:19:33.614Z,4.65
2023-03-30T01:23:35.284Z,5.05
2023-03-30T01:28:04.402Z,5.43
2023-03-30T01:32:24.435Z,5.55
2023-03-30T01:36:53.627Z,4.93
2023-03-30T01:41:22.504Z,5.40
2023-03-30T01:46:25.095Z,5.03
2023-03-30T01:50:40.979Z,5.45
2023-03-30T01:54:48.751Z,5.53
2023-03-30T01:58:56.320Z,6.68
2023-03-30T02:03:06.704Z,5.53
2023-03-30T02:07:15.483Z,5.00
2023-03-30T02:11:17.091Z,5.57
2023-03-30T02:15:19.826Z,5.40
2023-03-30T02:19:21.655Z,5.30
2023-03-30T02:23:25.729Z,5.18
2023-03-30T02:27:27.711Z,5.25
2023-03-30T02:31:30.094Z,5.25
2023-03-30T02:35:57.366Z,5.60
2023-03-30T02:40:13.360Z,5.20
2023-03-30T02:44:23.935Z,4.80
2023-03-30T02:48:44.215Z,4.43
2023-03-30T02:57:14.917Z,5.43
2023-03-30T03:01:39.221Z,4.53
2023-03-30T03:05:43.117Z,5.10
2023-03-30T03:09:44.542Z,5.40
2023-03-30T03:13:46.004Z,5.30
2023-03-30T03:17:47.517Z,4.97
2023-03-30T03:21:49.288Z,4.25
2023-03-30T03:25:50.872Z,5.35
2023-03-30T03:29:52.365Z,4.95
2023-03-30T03:33:53.852Z,4.57
2023-03-30T03:37:55.646Z,5.10
2023-03-30T03:41:57.282Z,5.07
2023-03-30T03:45:58.911Z,5.18
2023-03-30T03:50:03.787Z,6.25
2023-03-30T03:54:05.635Z,5.70
2023-03-30T03:58:07.956Z,5.65
2023-03-30T04:02:09.493Z,6.05
2023-03-30T04:06:11.404Z,6.57
2023-03-30T04:10:14.544Z,5.47
2023-03-30T04:14:16.019Z,6.40
2023-03-30T04:18:17.811Z,6.10
2023-03-30T04:22:20.156Z,5.85
2023-03-30T04:26:21.698Z,6.55
2023-03-30T04:30:23.634Z,5.60
2023-03-30T04:34:26.740Z,5.85
2023-03-30T04:38:30.033Z,5.55
2023-03-30T04:42:34.205Z,5.55
2023-03-30T04:46:36.252Z,5.78
2023-03-30T04:50:37.943Z,6.40
2023-03-30T04:54:39.384Z,5.88
2023-03-30T04:58:40.982Z,6.28
2023-03-30T05:02:42.523Z,6.18
2023-03-30T05:06:44.203Z,5.45
2023-03-30T05:10:45.652Z,6.22
2023-03-30T05:14:47.124Z,5.45
2023-03-30T05:18:51.363Z,6.03
2023-03-30T05:22:53.735Z,5.28
2023-03-30T05:26:56.314Z,5.90
2023-03-30T05:30:57.754Z,5.50
2023-03-30T05:34:59.180Z,5.75
2023-03-30T05:39:01.083Z,5.45
2023-03-30T05:43:02.569Z,5.38
2023-03-30T05:47:04.081Z,5.53
2023-03-30T05:51:05.818Z,5.60
2023-03-30T05:55:07.787Z,5.57
2023-03-30T05:59:10.407Z,5.72
2023-03-30T06:03:12.251Z,4.85
2023-03-30T06:07:13.808Z,5.95
2023-03-30T06:11:15.754Z,5.30
2023-03-30T06:15:17.336Z,4.93
2023-03-30T06:19:18.808Z,5.13
2023-03-30T06:23:20.335Z,5.35
2023-03-30T06:27:21.818Z,5.07
2023-03-30T06:31:23.324Z,4.68
2023-03-30T06:35:25.046Z,4.00
2023-03-30T06:39:27.011Z,5.05
2023-03-30T06:43:28.463Z,5.45
2023-03-30T06:47:30.462Z,5.95
2023-03-30T06:51:32.298Z,5.32
2023-03-30T06:55:33.791Z,6.25
2023-03-30T06:59:35.280Z,5.38
2023-03-30T07:03:37.960Z,4.57
2023-03-30T07:07:39.387Z,5.47
2023-03-30T07:11:40.863Z,4.63
2023-03-30T07:15:42.347Z,4.78
2023-03-30T07:19:43.788Z,5.18
2023-03-30T07:23:45.228Z,5.00
2023-03-30T07:27:47.742Z,4.78
2023-03-30T07:31:49.294Z,4.38
2023-03-30T07:35:52.943Z,4.53
2023-03-30T07:39:56.298Z,4.53
2023-03-30T07:43:57.735Z,3.90
2023-03-30T07:47:59.365Z,4.25
2023-03-30T07:52:01.320Z,3.17
2023-03-30T07:56:03.621Z,4.03
2023-03-30T08:00:06.206Z,2.97
2023-03-30T08:04:07.739Z,3.05
2023-03-30T08:08:09.246Z,3.08
2023-03-30T08:12:10.887Z,3.03
2023-03-30T08:16:12.787Z,3.03
2023-03-30T08:20:14.938Z,2.63
2023-03-30T08:24:17.013Z,2.53
2023-03-30T08:28:20.182Z,2.75
2023-03-30T08:32:21.598Z,2.10
2023-03-30T08:36:23.094Z,2.58
2023-03-30T08:40:24.630Z,2.22
2023-03-30T08:44:35.280Z,1.35
2023-03-30T08:48:39.989Z,1.55
2023-03-30T08:52:42.231Z,2.60
2023-03-30T08:56:56.027Z,2.38
2023-03-30T09:01:08.654Z,2.22
2023-03-30T09:05:26.404Z,2.42
2023-03-30T09:09:32.329Z,2.15
2023-03-30T09:13:36.292Z,2.03
2023-03-30T09:17:44.104Z,1.30
2023-03-30T09:21:46.334Z,2.55
2023-03-30T09:25:59.953Z,2.83
2023-03-30T09:30:18.266Z,1.63
2023-03-30T09:34:27.361Z,3.20
2023-03-30T09:38:31.101Z,2.00
2023-03-30T09:42:58.468Z,1.60
2023-03-30T09:47:02.118Z,2.05
2023-03-30T09:51:14.632Z,1.60
2023-03-30T09:55:25.534Z,2.08
2023-03-30T09:59:37.561Z,1.38
2023-03-30T10:03:41.823Z,2.25
2023-03-30T10:07:43.711Z,2.45
2023-03-30T10:11:50.386Z,2.08
2023-03-30T10:15:54.208Z,2.42
2023-03-30T10:20:37.411Z,1.95
2023-03-30T10:24:50.179Z,2.60
2023-03-30T10:29:03.212Z,2.08
2023-03-30T10:33:11.292Z,2.75
2023-03-30T10:37:22.000Z,1.60
2023-03-30T10:41:24.183Z,2.58
2023-03-30T10:45:36.292Z,2.45
2023-03-30T10:50:07.611Z,2.17
2023-03-30T10:54:35.931Z,2.13
2023-03-30T10:59:04.092Z,2.47
2023-03-30T11:03:15.657Z,1.25
2023-03-30T11:07:41.998Z,2.20
2023-03-30T11:11:54.519Z,2.00
2023-03-30T11:16:18.518Z,1.92
2023-03-30T11:20:27.559Z,2.50
2023-03-30T11:24:29.331Z,1.85
2023-03-30T11:28:51.786Z,2.65
2023-03-30T11:33:06.453Z,2.17
2023-03-30T11:37:29.648Z,2.10
2023-03-30T11:41:43.006Z,1.75
2023-03-30T11:46:10.088Z,1.83
2023-03-30T11:50:32.653Z,2.55
2023-03-30T11:55:09.181Z,2.13
2023-03-30T11:59:28.144Z,2.38
2023-03-30T12:03:38.862Z,2.93
2023-03-30T12:07:50.752Z,2.35
2023-03-30T12:11:57.213Z,1.73
2023-03-30T12:16:04.738Z,1.73
2023-03-30T12:20:09.330Z,1.88
2023-03-30T12:24:19.532Z,1.90
2023-03-30T12:28:32.364Z,2.38
2023-03-30T12:32:59.059Z,2.33
2023-03-30T12:37:15.694Z,2.20
2023-03-30T12:41:20.514Z,1.77
2023-03-30T12:45:33.548Z,2.38
2023-03-30T12:50:06.758Z,2.08
2023-03-30T12:54:15.965Z,2.13
2023-03-30T12:58:26.839Z,2.10
2023-03-30T13:02:50.782Z,2.42
2023-03-30T13:07:05.152Z,1.90
2023-03-30T13:11:19.310Z,1.80
2023-03-30T13:15:29.883Z,2.45
2023-03-30T13:19:31.828Z,2.00
2023-03-30T13:23:37.755Z,1.52
2023-03-30T13:27:41.765Z,2.58
2023-03-30T13:32:07.415Z,2.17
2023-03-30T13:36:18.828Z,2.75
2023-03-30T13:40:46.125Z,1.98
2023-03-30T13:45:05.413Z,2.42
2023-03-30T13:49:45.335Z,2.50
2023-03-30T13:53:51.893Z,2.20
2023-03-30T13:58:01.316Z,1.42
2023-03-30T14:02:03.677Z,1.65
2023-03-30T14:06:14.390Z,2.30
2023-03-30T14:10:20.460Z,2.00
2023-03-30T14:14:46.700Z,2.22
2023-03-30T14:18:48.729Z,1.83
2023-03-30T14:22:51.268Z,2.17
2023-03-30T14:26:54.738Z,3.65
2023-03-30T14:31:03.035Z,2.75
2023-03-30T14:35:05.674Z,2.80
2023-03-30T14:39:09.523Z,2.83
2023-03-30T14:43:14.940Z,2.80
2023-03-30T14:47:21.316Z,3.03
2023-03-30T14:51:37.360Z,2.42
2023-03-30T14:55:39.309Z,3.70
2023-03-30T14:59:48.041Z,1.58
2023-03-30T15:03:50.358Z,2.43
2023-03-30T15:07:53.244Z,2.70
2023-03-30T15:12:01.224Z,2.55
2023-03-30T15:16:05.362Z,2.65
2023-03-30T15:20:08.247Z,1.95
2023-03-30T15:24:16.596Z,1.98
2023-03-30T15:28:19.518Z,2.10
2023-03-30T15:32:29.306Z,1.45
2023-03-30T15:36:33.474Z,2.45
2023-03-30T15:40:38.241Z,1.98
2023-03-30T15:44:43.156Z,1.92
2023-03-30T15:48:50.653Z,1.38
2023-03-30T15:53:01.732Z,1.67
2023-03-30T15:57:20.174Z,2.15
2023-03-30T16:01:26.338Z,2.22
2023-03-30T16:05:33.971Z,2.08
2023-03-30T16:09:35.677Z,3.13
2023-03-30T16:13:43.330Z,2.22
2023-03-30T16:17:46.050Z,2.28
2023-03-30T16:21:47.669Z,2.03
2023-03-30T16:25:49.115Z,1.17
2023-03-30T16:29:50.839Z,2.38
2023-03-30T16:33:52.561Z,2.42
2023-03-30T16:37:54.150Z,2.50
2023-03-30T16:41:56.350Z,2.70
2023-03-30T16:45:57.854Z,2.78
2023-03-30T16:49:59.673Z,2.45
2023-03-30T16:54:01.157Z,3.30
2023-03-30T16:58:03.581Z,3.22
2023-03-30T17:02:12.241Z,2.70
2023-03-30T17:06:16.990Z,2.90
2023-03-30T17:10:31.025Z,3.30
2023-03-30T17:14:32.480Z,3.03
2023-03-30T17:18:34.199Z,3.17
2023-03-30T17:22:35.629Z,3.60
2023-03-30T17:26:37.242Z,3.97
2023-03-30T17:30:42.401Z,3.10
2023-03-30T17:34:43.821Z,3.20
2023-03-30T17:38:45.989Z,3.92
2023-03-30T17:42:48.013Z,3.45
2023-03-30T17:46:49.522Z,3.45
2023-03-30T17:50:51.325Z,2.13
2023-03-30T17:54:52.828Z,4.05
2023-03-30T17:58:54.643Z,4.95
2023-03-30T18:02:56.536Z,4.43
2023-03-30T18:06:57.996Z,3.65
2023-03-30T18:11:01.095Z,3.20
2023-03-30T18:15:02.852Z,2.28
2023-03-30T18:19:04.309Z,3.30
2023-03-30T18:23:05.979Z,3.92
2023-03-30T18:27:08.307Z,4.13
2023-03-30T18:31:10.220Z,3.80
2023-03-30T18:35:11.728Z,4.43
2023-03-30T18:39:19.835Z,4.07
2023-03-30T18:43:21.292Z,3.92
2023-03-30T18:47:24.636Z,4.63
2023-03-30T18:51:26.294Z,4.80
2023-03-30T18:55:30.062Z,4.30
2023-03-30T18:59:31.645Z,3.88
2023-03-30T19:03:33.300Z,1.75
2023-03-30T19:07:34.847Z,2.85
2023-03-30T19:11:36.769Z,4.10
2023-03-30T19:15:38.292Z,2.78
2023-03-30T19:19:39.773Z,2.78
2023-03-30T19:23:41.309Z,3.10
2023-03-30T19:27:55.407Z,3.47
2023-03-30T19:32:03.202Z,3.90
2023-03-30T19:36:09.246Z,3.80
2023-03-30T19:40:17.784Z,2.83
2023-03-30T19:44:19.201Z,2.10
2023-03-30T19:48:21.568Z,2.28
2023-03-30T19:52:24.199Z,4.38
2023-03-30T19:56:26.639Z,1.85
2023-03-30T20:00:28.222Z,1.20
2023-03-30T20:04:29.692Z,1.50
2023-03-30T20:08:32.864Z,1.40
2023-03-30T20:12:34.871Z,1.25
2023-03-30T20:16:36.360Z,1.30
2023-03-30T20:20:38.395Z,1.08
2023-03-30T20:24:40.587Z,1.25
2023-03-30T20:28:43.585Z,1.15
2023-03-30T20:32:50.364Z,1.25
2023-03-30T20:36:57.725Z,1.42
2023-03-30T20:41:06.171Z,1.73
2023-03-30T20:45:08.682Z,1.92
2023-03-30T20:49:11.870Z,1.50
2023-03-30T20:53:13.334Z,2.10
2023-03-30T20:57:14.833Z,1.95
2023-03-30T21:01:18.808Z,2.05
2023-03-30T21:05:20.388Z,2.30
2023-03-30T21:09:21.882Z,2.05
2023-03-30T21:13:23.409Z,1.98
2023-03-30T21:17:25.259Z,1.80
2023-03-30T21:21:27.072Z,2.00
2023-03-30T21:25:29.284Z,2.22
2023-03-30T21:29:32.288Z,2.38
2023-03-30T21:33:35.413Z,1.85
2023-03-30T21:37:37.014Z,2.45
2023-03-30T21:41:38.468Z,2.22
2023-03-30T21:45:39.877Z,2.75
2023-03-30T21:49:41.275Z,2.08
2023-03-30T21:53:44.949Z,2.55
2023-03-30T21:57:46.333Z,2.70
2023-03-30T22:01:47.870Z,3.10
2023-03-30T22:05:49.322Z,2.42
2023-03-30T22:09:51.208Z,2.90
2023-03-30T22:13:55.035Z,2.90
2023-03-30T22:17:56.775Z,3.25
2023-03-30T22:21:58.502Z,3.05
2023-03-30T22:26:00.279Z,3.08
2023-03-30T22:30:03.453Z,1.98
2023-03-30T22:34:07.906Z,2.92
2023-03-30T22:38:10.597Z,2.97
2023-03-30T22:42:12.042Z,3.17
2023-03-30T22:46:13.544Z,2.63
2023-03-30T22:50:15.019Z,2.67
2023-03-30T22:54:17.936Z,2.30
2023-03-30T22:58:19.434Z,2.22
2023-03-30T23:02:21.181Z,2.60
2023-03-30T23:06:22.701Z,2.45
2023-03-30T23:10:25.442Z,2.13
2023-03-30T23:14:27.061Z,2.67
2023-03-30T23:18:28.560Z,2.70
2023-03-30T23:22:29.984Z,2.35
2023-03-30T23:26:32.333Z,1.88
2023-03-30T23:30:33.746Z,2.03
2023-03-30T23:34:35.334Z,2.03
2023-03-30T23:38:37.258Z,2.03
2023-03-30T23:42:38.704Z,2.30
2023-03-30T23:46:40.202Z,2.15
2023-03-30T23:50:54.120Z,1.90
2023-03-30T23:55:04.862Z,1.52
2023-03-30T23:59:06.298Z,2.10
